Time;durP1;ratioP1;P1;durP2;ratioP2;P2;SDS_P1;SDS_P2;PMS_P1;PMS_P2;Temp;Humidity;BMP_temperature;BMP_pressure;BME280_temperature;BME280_humidity;BME280_pressure;Samples;Min_cycle;Max_cycle;Signal;HPM_P1;HPM_P2
2021/06/28 00:00:43;;;;;;;29.27;16.90;;;19.20;91.10;;;;;;4984221;28;20179;-85
2021/06/28 00:03:10;;;;;;;26.40;17.75;;;19.20;91.50;;;;;;5004295;28;20187;-85
2021/06/28 00:05:36;;;;;;;23.35;17.10;;;19.20;92.00;;;;;;4982499;28;20646;-85
2021/06/28 00:08:02;;;;;;;21.88;16.15;;;19.30;92.00;;;;;;4998669;28;20183;-86
2021/06/28 00:10:30;;;;;;;20.08;17.98;;;19.30;91.70;;;;;;4981233;28;20187;-85
2021/06/28 00:12:59;;;;;;;22.73;16.13;;;19.20;91.10;;;;;;4981065;28;20322;-85
2021/06/28 00:15:31;;;;;;;21.35;16.17;;;19.30;90.90;;;;;;4980488;28;20215;-85
2021/06/28 00:17:58;;;;;;;26.80;17.33;;;19.20;90.60;;;;;;4979933;28;20178;-85
2021/06/28 00:20:24;;;;;;;29.40;18.67;;;19.30;90.40;;;;;;4978933;28;20183;-86
2021/06/28 00:22:50;;;;;;;26.73;16.67;;;19.30;90.60;;;;;;4979446;28;20202;-86
2021/06/28 00:25:18;;;;;;;24.70;16.67;;;19.30;90.10;;;;;;4979250;28;20785;-85
2021/06/28 00:27:44;;;;;;;20.75;17.27;;;19.20;89.70;;;;;;4985989;28;20422;-86
2021/06/28 00:30:13;;;;;;;23.80;17.38;;;19.20;89.40;;;;;;4987898;28;20187;-85
2021/06/28 00:32:40;;;;;;;23.42;17.50;;;19.30;89.10;;;;;;4986347;28;20271;-86
2021/06/28 00:35:07;;;;;;;27.80;17.23;;;19.10;89.00;;;;;;4984415;28;20233;-85
2021/06/28 00:37:33;;;;;;;24.15;17.33;;;19.00;89.40;;;;;;4985056;28;20179;-85
2021/06/28 00:39:58;;;;;;;19.87;16.87;;;19.10;89.60;;;;;;4986572;28;20262;-85
2021/06/28 00:42:25;;;;;;;28.43;20.57;;;18.90;89.70;;;;;;5004650;28;20442;-86
2021/06/28 00:44:54;;;;;;;29.30;18.35;;;19.00;90.30;;;;;;4984090;28;20261;-84
2021/06/28 00:47:20;;;;;;;25.10;17.75;;;19.00;90.50;;;;;;4997495;28;20266;-84
2021/06/28 00:49:47;;;;;;;22.30;17.17;;;19.00;90.10;;;;;;4996680;28;20243;-84
2021/06/28 00:52:13;;;;;;;22.73;16.75;;;18.90;90.00;;;;;;4979838;28;20203;-86
2021/06/28 00:54:39;;;;;;;20.63;15.73;;;18.90;90.00;;;;;;4979355;28;20187;-86
2021/06/28 00:57:06;;;;;;;22.60;15.60;;;19.00;90.00;;;;;;4980497;28;20273;-85
2021/06/28 00:59:32;;;;;;;22.23;16.45;;;19.00;89.80;;;;;;4979676;28;20690;-85
2021/06/28 01:02:01;;;;;;;19.02;15.52;;;19.00;89.00;;;;;;4979554;28;20219;-85
2021/06/28 01:04:28;;;;;;;22.58;15.57;;;19.10;88.80;;;;;;4979635;28;20175;-85
2021/06/28 01:06:54;;;;;;;18.60;14.05;;;19.00;88.90;;;;;;5001143;28;20334;-86
2021/06/28 01:09:19;;;;;;;22.60;14.82;;;19.00;89.00;;;;;;5003343;28;20175;-84
2021/06/28 01:11:45;;;;;;;21.77;15.37;;;19.00;89.10;;;;;;4980254;28;20213;-86
2021/06/28 01:14:11;;;;;;;21.77;16.10;;;19.00;89.10;;;;;;4979738;28;20186;-85
2021/06/28 01:16:37;;;;;;;22.00;15.70;;;19.00;88.90;;;;;;4979021;28;20257;-86
2021/06/28 01:19:04;;;;;;;18.37;14.90;;;18.90;88.70;;;;;;4978992;28;20222;-86
2021/06/28 01:21:33;;;;;;;19.63;15.70;;;18.90;88.80;;;;;;4978743;28;20438;-84
2021/06/28 01:24:00;;;;;;;23.80;15.70;;;18.90;89.20;;;;;;5002601;28;20171;-85
2021/06/28 01:26:26;;;;;;;22.42;16.30;;;18.90;89.20;;;;;;4983236;28;20346;-85
2021/06/28 01:28:51;;;;;;;23.00;15.75;;;19.00;89.00;;;;;;4980722;28;20658;-85
2021/06/28 01:31:17;;;;;;;24.57;16.73;;;19.00;89.00;;;;;;4997123;28;20199;-85
2021/06/28 01:33:43;;;;;;;25.03;16.60;;;19.10;88.50;;;;;;4980021;28;20541;-85
2021/06/28 01:36:09;;;;;;;19.17;15.00;;;19.20;88.00;;;;;;4979163;28;20211;-84
2021/06/28 01:38:35;;;;;;;22.93;15.77;;;19.10;88.00;;;;;;4979006;28;20185;-85
2021/06/28 01:41:01;;;;;;;23.38;17.00;;;19.10;88.20;;;;;;4979180;28;20449;-85
2021/06/28 01:43:27;;;;;;;23.98;16.27;;;19.10;87.90;;;;;;4978346;28;20535;-84
2021/06/28 01:45:54;;;;;;;19.17;15.20;;;19.10;87.90;;;;;;4980850;28;20183;-85
2021/06/28 01:48:21;;;;;;;21.00;16.63;;;19.00;88.10;;;;;;4983056;28;20179;-85
2021/06/28 01:50:47;;;;;;;21.92;15.32;;;19.00;88.70;;;;;;5000282;28;20182;-84
2021/06/28 01:53:13;;;;;;;22.47;16.50;;;19.20;88.70;;;;;;4982741;28;20230;-86
2021/06/28 01:55:40;;;;;;;22.20;16.88;;;19.20;88.10;;;;;;4983000;28;20461;-86
2021/06/28 01:58:08;;;;;;;21.58;15.98;;;19.20;87.30;;;;;;4982479;28;20186;-85
2021/06/28 02:00:41;;;;;;;21.80;16.05;;;19.10;87.20;;;;;;4982737;28;20179;-85
2021/06/28 02:03:10;;;;;;;22.15;15.90;;;19.10;87.60;;;;;;4982428;28;20199;-85
2021/06/28 02:05:42;;;;;;;23.15;16.38;;;19.10;87.80;;;;;;4983147;28;20183;-85
2021/06/28 02:08:09;;;;;;;21.60;16.83;;;19.00;88.00;;;;;;4983167;28;20189;-85
2021/06/28 02:10:37;;;;;;;21.30;16.48;;;19.10;88.10;;;;;;4982243;28;20198;-84
2021/06/28 02:13:03;;;;;;;24.25;17.70;;;19.10;87.90;;;;;;4988260;28;20219;-85
2021/06/28 02:15:30;;;;;;;23.08;18.38;;;19.10;87.70;;;;;;4991006;28;20575;-85
2021/06/28 02:17:58;;;;;;;22.08;18.27;;;19.00;87.70;;;;;;4985343;28;20229;-85
2021/06/28 02:20:24;;;;;;;23.17;18.15;;;18.90;88.40;;;;;;4987594;28;20186;-86
2021/06/28 02:22:51;;;;;;;31.15;20.35;;;18.80;89.30;;;;;;5004092;28;20253;-85
2021/06/28 02:25:19;;;;;;;30.25;20.75;;;18.90;89.60;;;;;;4984194;28;20250;-85
2021/06/28 02:27:46;;;;;;;30.38;19.10;;;18.90;89.50;;;;;;4983089;28;20275;-85
2021/06/28 02:30:14;;;;;;;24.60;17.98;;;18.90;89.50;;;;;;4982513;28;20210;-85
2021/06/28 02:32:41;;;;;;;25.67;18.92;;;18.90;89.60;;;;;;4981565;28;20210;-85
2021/06/28 02:35:10;;;;;;;28.77;20.42;;;18.90;89.40;;;;;;4981864;28;20206;-85
2021/06/28 02:37:37;;;;;;;28.75;20.05;;;18.90;88.90;;;;;;4982214;28;20187;-84
2021/06/28 02:40:05;;;;;;;27.83;20.50;;;18.90;88.60;;;;;;4999075;28;20258;-86
2021/06/28 02:42:31;;;;;;;27.30;20.55;;;18.90;88.90;;;;;;4980776;28;20204;-85
2021/06/28 02:44:57;;;;;;;27.17;19.70;;;18.80;89.00;;;;;;4981594;28;20183;-85
2021/06/28 02:47:22;;;;;;;27.60;21.17;;;18.90;89.20;;;;;;4998709;28;20179;-84
2021/06/28 02:49:48;;;;;;;30.60;21.70;;;18.80;89.20;;;;;;4997593;28;20554;-86
2021/06/28 02:52:14;;;;;;;32.33;22.30;;;18.90;89.30;;;;;;4998739;28;20693;-85
2021/06/28 02:54:39;;;;;;;28.70;21.50;;;19.00;89.00;;;;;;4983415;28;20175;-85
2021/06/28 02:57:05;;;;;;;31.63;22.07;;;19.00;88.40;;;;;;4985049;28;20285;-84
2021/06/28 02:59:31;;;;;;;33.88;24.25;;;18.90;88.40;;;;;;5006878;28;20635;-85
2021/06/28 03:01:57;;;;;;;29.83;22.27;;;18.80;88.40;;;;;;5005833;28;20237;-86
2021/06/28 03:04:23;;;;;;;28.80;21.37;;;18.70;88.80;;;;;;4989000;28;20180;-85
2021/06/28 03:06:48;;;;;;;35.10;23.90;;;18.80;89.10;;;;;;4990465;28;20926;-85
2021/06/28 03:09:14;;;;;;;29.60;22.53;;;18.80;89.20;;;;;;4985220;28;20213;-85
2021/06/28 03:11:40;;;;;;;36.77;25.67;;;18.70;89.50;;;;;;4982319;28;20210;-85
2021/06/28 03:14:05;;;;;;;37.83;24.50;;;18.60;90.00;;;;;;4981173;28;20197;-85
2021/06/28 03:16:32;;;;;;;34.23;26.40;;;18.60;90.40;;;;;;4985957;28;20207;-85
2021/06/28 03:18:58;;;;;;;36.30;26.30;;;18.70;90.70;;;;;;4993088;28;20214;-84
2021/06/28 03:21:24;;;;;;;38.13;26.25;;;18.70;90.70;;;;;;4986030;28;20214;-85
2021/06/28 03:23:50;;;;;;;37.63;26.73;;;18.90;90.70;;;;;;4981913;28;20214;-86
2021/06/28 03:26:15;;;;;;;38.80;27.93;;;19.00;89.80;;;;;;4982083;28;20508;-86
2021/06/28 03:28:41;;;;;;;40.53;28.50;;;19.00;88.70;;;;;;4981840;28;20501;-85
2021/06/28 03:31:08;;;;;;;43.10;27.60;;;19.00;88.40;;;;;;4980671;28;20199;-85
2021/06/28 03:33:35;;;;;;;40.97;28.25;;;19.00;88.10;;;;;;4980244;28;20750;-85
2021/06/28 03:36:01;;;;;;;41.88;27.50;;;19.10;87.80;;;;;;4980485;28;20211;-85
2021/06/28 03:38:26;;;;;;;39.10;27.80;;;19.00;87.40;;;;;;4980489;28;20199;-85
2021/06/28 03:40:52;;;;;;;41.17;28.30;;;19.00;87.30;;;;;;4980695;28;20470;-85
2021/06/28 03:43:18;;;;;;;36.30;27.93;;;19.10;87.00;;;;;;4981427;28;20482;-84
2021/06/28 03:45:46;;;;;;;41.07;27.13;;;19.00;86.80;;;;;;4981166;28;20430;-85
2021/06/28 03:48:13;;;;;;;36.78;25.73;;;19.00;87.00;;;;;;4981596;28;20176;-86
2021/06/28 03:50:41;;;;;;;34.08;25.95;;;19.00;87.10;;;;;;4980650;28;20226;-86
2021/06/28 03:53:07;;;;;;;33.30;25.95;;;18.90;87.70;;;;;;4984235;28;20237;-85
2021/06/28 03:55:33;;;;;;;32.92;26.00;;;18.90;87.50;;;;;;4983582;28;20210;-85
2021/06/28 03:58:00;;;;;;;38.20;26.20;;;18.90;87.10;;;;;;4981627;28;20207;-86
2021/06/28 04:00:27;;;;;;;33.38;25.23;;;19.00;87.00;;;;;;4980401;28;20246;-85
2021/06/28 04:02:54;;;;;;;34.83;24.15;;;19.00;86.80;;;;;;4980480;28;20211;-86
2021/06/28 04:05:22;;;;;;;30.67;23.50;;;19.00;87.00;;;;;;4996507;28;20179;-85
2021/06/28 04:07:51;;;;;;;34.95;26.25;;;19.10;87.30;;;;;;4980691;28;20242;-85
2021/06/28 04:10:20;;;;;;;31.27;23.20;;;19.10;87.20;;;;;;4980241;28;20553;-86
2021/06/28 04:12:48;;;;;;;32.25;24.75;;;19.10;86.70;;;;;;5002124;28;20635;-85
2021/06/28 04:15:16;;;;;;;27.45;22.52;;;19.30;86.60;;;;;;4987326;28;20227;-86
2021/06/28 04:17:45;;;;;;;25.35;21.75;;;19.30;86.70;;;;;;4983945;28;20233;-85
2021/06/28 04:20:13;;;;;;;33.40;23.77;;;19.30;86.70;;;;;;4998632;28;20209;-85
2021/06/28 04:22:40;;;;;;;31.48;23.45;;;19.50;86.80;;;;;;4980466;28;20756;-85
2021/06/28 04:25:08;;;;;;;32.22;22.55;;;19.60;86.10;;;;;;4988775;28;20187;-84
2021/06/28 04:27:33;;;;;;;30.00;23.77;;;19.70;85.50;;;;;;4985396;28;20191;-84
2021/06/28 04:30:00;;;;;;;32.70;23.50;;;19.70;85.40;;;;;;4983883;28;20206;-85
2021/06/28 04:32:26;;;;;;;32.65;21.50;;;19.80;85.60;;;;;;4996927;28;20505;-84
2021/06/28 04:34:51;;;;;;;27.43;21.97;;;19.80;85.70;;;;;;4980252;28;20582;-86
2021/06/28 04:37:17;;;;;;;24.63;20.93;;;19.90;85.70;;;;;;4998989;28;20583;-85
2021/06/28 04:39:44;;;;;;;24.80;20.30;;;20.00;85.20;;;;;;4980083;28;20643;-85
2021/06/28 04:42:10;;;;;;;26.63;20.13;;;20.00;84.50;;;;;;4997115;28;20695;-85
2021/06/28 04:44:36;;;;;;;24.17;18.70;;;20.20;84.40;;;;;;4980245;28;20191;-85
2021/06/28 04:47:02;;;;;;;23.37;19.43;;;20.30;84.10;;;;;;4980322;28;20492;-84
2021/06/28 04:49:28;;;;;;;25.42;19.38;;;20.40;83.30;;;;;;4980345;28;20182;-85
2021/06/28 04:51:53;;;;;;;21.87;19.53;;;20.50;82.60;;;;;;4979840;28;20282;-85
2021/06/28 04:54:19;;;;;;;25.67;19.27;;;20.70;82.00;;;;;;4998580;28;20171;-85
2021/06/28 04:56:45;;;;;;;22.37;18.90;;;20.70;82.40;;;;;;4998661;28;20191;-85
2021/06/28 04:59:10;;;;;;;25.00;18.13;;;20.80;82.40;;;;;;4981299;28;20179;-84
2021/06/28 05:01:36;;;;;;;24.60;18.67;;;21.00;81.70;;;;;;4980923;28;20237;-85
2021/06/28 05:04:02;;;;;;;20.50;18.13;;;21.20;81.20;;;;;;4998105;28;20183;-85
2021/06/28 05:06:28;;;;;;;25.97;19.13;;;21.30;80.40;;;;;;4980657;28;20182;-85
2021/06/28 05:08:54;;;;;;;25.07;18.07;;;21.30;80.00;;;;;;4981346;28;20534;-86
2021/06/28 05:11:19;;;;;;;22.83;18.47;;;21.40;80.40;;;;;;5003199;28;20583;-85
2021/06/28 05:13:45;;;;;;;21.93;17.73;;;21.40;81.00;;;;;;4988383;28;20432;-86
2021/06/28 05:16:11;;;;;;;21.73;18.40;;;21.50;80.60;;;;;;5004865;28;20217;-86
2021/06/28 05:18:37;;;;;;;20.97;18.67;;;21.60;80.30;;;;;;5020653;28;20179;-85
2021/06/28 05:21:03;;;;;;;20.63;18.43;;;21.80;80.10;;;;;;5009451;28;20194;-86
2021/06/28 05:23:28;;;;;;;23.40;18.27;;;22.10;80.30;;;;;;5030229;28;20244;-84
2021/06/28 05:25:56;;;;;;;20.33;18.13;;;22.30;80.50;;;;;;5010607;28;20477;-85
2021/06/28 05:28:22;;;;;;;19.63;17.33;;;22.60;78.60;;;;;;5028683;28;20179;-84
2021/06/28 05:30:48;;;;;;;18.83;15.63;;;22.80;78.10;;;;;;5014080;28;21029;-85
2021/06/28 05:33:14;;;;;;;20.87;15.23;;;23.00;76.60;;;;;;5002168;28;20425;-85
2021/06/28 05:35:40;;;;;;;21.63;15.90;;;23.60;74.90;;;;;;5003466;28;20464;-83
2021/06/28 05:38:05;;;;;;;18.33;16.03;;;24.20;74.40;;;;;;5007305;28;20265;-84
2021/06/28 05:40:31;;;;;;;16.90;15.13;;;24.70;73.10;;;;;;4989542;28;20215;-84
2021/06/28 05:42:57;;;;;;;16.70;14.43;;;25.10;71.20;;;;;;5005824;28;20255;-84
2021/06/28 05:45:23;;;;;;;18.30;16.40;;;25.20;68.80;;;;;;4988836;28;20290;-84
2021/06/28 05:47:49;;;;;;;21.50;15.80;;;25.20;67.50;;;;;;5006949;28;20533;-84
2021/06/28 05:50:17;;;;;;;23.77;17.27;;;25.00;68.70;;;;;;4988891;28;20430;-85
2021/06/28 05:52:44;;;;;;;21.83;17.00;;;24.70;68.70;;;;;;4989047;28;20202;-84
2021/06/28 05:55:11;;;;;;;23.87;19.67;;;24.50;70.00;;;;;;4988231;28;20500;-83
2021/06/28 05:57:37;;;;;;;21.80;17.80;;;24.10;70.20;;;;;;5005841;28;20414;-84
2021/06/28 06:00:07;;;;;;;21.17;17.83;;;23.80;70.80;;;;;;4988109;28;20414;-83
2021/06/28 06:02:34;;;;;;;19.70;17.00;;;23.70;72.50;;;;;;4991822;28;20529;-84
2021/06/28 06:05:00;;;;;;;21.40;19.13;;;23.60;72.90;;;;;;4989743;28;20430;-84
2021/06/28 06:07:26;;;;;;;21.73;17.10;;;23.60;73.30;;;;;;4990572;28;20433;-85
2021/06/28 06:09:51;;;;;;;19.43;17.03;;;23.60;73.40;;;;;;5007771;28;20932;-85
2021/06/28 06:12:17;;;;;;;19.93;16.47;;;23.70;74.10;;;;;;4989207;28;20207;-85
2021/06/28 06:14:43;;;;;;;19.23;16.77;;;24.00;73.80;;;;;;4990796;28;20189;-84
2021/06/28 06:17:09;;;;;;;20.13;16.60;;;24.20;72.50;;;;;;5006310;28;20194;-85
2021/06/28 06:19:35;;;;;;;21.30;17.00;;;24.50;70.20;;;;;;4988238;28;20453;-86
2021/06/28 06:22:01;;;;;;;19.30;15.17;;;24.90;69.30;;;;;;5005562;28;20434;-82
2021/06/28 06:24:29;;;;;;;17.53;15.03;;;25.10;69.20;;;;;;4988390;28;20426;-82
2021/06/28 06:26:56;;;;;;;20.57;16.30;;;25.70;67.70;;;;;;5005288;28;20184;-82
2021/06/28 06:29:25;;;;;;;16.53;14.73;;;26.40;66.70;;;;;;5005921;28;20505;-83
2021/06/28 06:31:51;;;;;;;18.30;14.43;;;27.20;65.40;;;;;;5002433;28;20442;-84
2021/06/28 06:34:17;;;;;;;18.93;16.50;;;27.80;64.80;;;;;;4970332;28;20438;-83
2021/06/28 06:36:43;;;;;;;27.20;15.57;;;27.70;61.80;;;;;;4985785;28;20690;-83
2021/06/28 06:39:09;;;;;;;48.57;18.50;;;27.70;60.90;;;;;;4968799;28;20551;-83
2021/06/28 06:41:35;;;;;;;22.90;15.97;;;28.10;60.90;;;;;;4966522;28;20424;-83
2021/06/28 06:44:01;;;;;;;33.23;18.07;;;28.30;60.30;;;;;;4966115;28;20926;-84
2021/06/28 06:46:27;;;;;;;21.03;15.10;;;28.70;59.40;;;;;;4965209;28;20211;-84
2021/06/28 06:48:52;;;;;;;13.67;12.27;;;29.40;58.70;;;;;;4971422;28;20182;-84
2021/06/28 06:51:19;;;;;;;14.07;12.57;;;29.80;56.30;;;;;;5001285;28;20191;-84
2021/06/28 06:53:45;;;;;;;11.10;10.10;;;30.20;54.40;;;;;;4983655;28;20211;-84
2021/06/28 06:56:11;;;;;;;13.17;11.97;;;30.50;52.80;;;;;;4983718;28;20470;-85
2021/06/28 06:58:37;;;;;;;13.70;12.30;;;30.70;52.90;;;;;;5002364;28;20171;-84
2021/06/28 07:01:05;;;;;;;13.07;11.57;;;30.60;51.80;;;;;;4984957;28;20199;-84
2021/06/28 07:03:31;;;;;;;9.47;7.57;;;30.50;51.60;;;;;;4986175;28;20191;-84
2021/06/28 07:05:57;;;;;;;7.00;6.30;;;30.50;51.90;;;;;;4984862;28;20440;-83
2021/06/28 07:08:23;;;;;;;19.80;12.73;;;30.00;49.90;;;;;;4984853;28;20214;-84
2021/06/28 07:10:48;;;;;;;16.73;13.63;;;29.90;51.70;;;;;;4984058;28;20451;-83
2021/06/28 07:13:14;;;;;;;8.13;7.37;;;29.90;53.10;;;;;;5002656;28;20389;-84
2021/06/28 07:15:40;;;;;;;8.63;7.73;;;29.70;51.10;;;;;;5000813;28;20203;-84
2021/06/28 07:18:07;;;;;;;8.17;7.47;;;29.60;51.50;;;;;;4985749;28;20423;-83
2021/06/28 07:20:33;;;;;;;13.13;11.90;;;29.40;52.00;;;;;;4986013;28;20850;-84
2021/06/28 07:23:00;;;;;;;10.83;8.33;;;29.30;53.60;;;;;;4984809;28;20448;-84
2021/06/28 07:25:26;;;;;;;11.83;9.53;;;29.00;53.30;;;;;;4986044;28;20772;-83
2021/06/28 07:27:53;;;;;;;15.10;13.70;;;28.80;53.00;;;;;;4988545;28;20422;-84
2021/06/28 07:30:22;;;;;;;10.80;9.70;;;28.30;55.70;;;;;;4987292;28;20423;-83
2021/06/28 07:32:50;;;;;;;11.53;8.33;;;28.10;55.70;;;;;;4985251;28;20453;-84
2021/06/28 07:35:17;;;;;;;11.77;10.57;;;28.10;57.50;;;;;;4987414;28;20468;-84
2021/06/28 07:37:43;;;;;;;13.43;11.40;;;27.80;57.20;;;;;;4989458;28;20469;-84
2021/06/28 07:40:13;;;;;;;10.33;9.33;;;27.80;59.80;;;;;;4985892;28;20428;-83
2021/06/28 07:42:39;;;;;;;17.67;14.20;;;27.40;58.70;;;;;;4992614;28;20430;-83
2021/06/28 07:45:07;;;;;;;12.10;10.60;;;27.50;59.90;;;;;;4993274;28;20542;-84
2021/06/28 07:47:33;;;;;;;14.13;11.20;;;27.40;61.70;;;;;;4987033;28;20469;-84
2021/06/28 07:49:59;;;;;;;10.13;8.83;;;27.40;63.10;;;;;;4987190;28;20434;-84
2021/06/28 07:52:26;;;;;;;9.80;8.87;;;27.20;62.20;;;;;;4985673;28;20545;-83
2021/06/28 07:54:52;;;;;;;12.00;9.93;;;27.10;62.80;;;;;;5004992;28;20417;-84
2021/06/28 07:57:18;;;;;;;11.23;7.83;;;27.10;62.80;;;;;;4983671;28;20452;-84
2021/06/28 07:59:44;;;;;;;12.30;8.87;;;27.10;62.40;;;;;;4992086;28;20178;-83
2021/06/28 08:02:09;;;;;;;12.80;8.60;;;26.90;61.00;;;;;;4991045;28;20224;-84
2021/06/28 08:04:35;;;;;;;10.83;9.83;;;26.80;62.00;;;;;;4991707;28;20468;-84
2021/06/28 08:07:01;;;;;;;10.00;9.00;;;26.60;61.50;;;;;;5005979;28;20192;-84
2021/06/28 08:09:26;;;;;;;9.27;8.40;;;26.60;63.10;;;;;;5006221;28;20190;-84
2021/06/28 08:11:56;;;;;;;10.53;8.90;;;26.40;63.20;;;;;;4987374;28;20236;-84
2021/06/28 08:14:22;;;;;;;9.90;8.67;;;26.40;63.80;;;;;;4984451;28;20644;-84
2021/06/28 08:16:47;;;;;;;9.87;8.90;;;26.30;61.60;;;;;;4984437;28;20473;-84
2021/06/28 08:19:13;;;;;;;11.67;10.10;;;26.10;61.80;;;;;;4984315;28;20273;-85
2021/06/28 08:21:40;;;;;;;16.50;11.37;;;25.90;62.30;;;;;;4982847;28;20200;-84
2021/06/28 08:24:08;;;;;;;10.20;9.17;;;25.90;63.10;;;;;;5001110;28;20186;-84
2021/06/28 08:26:35;;;;;;;11.80;9.57;;;25.80;65.10;;;;;;5000841;28;20422;-84
2021/06/28 08:29:03;;;;;;;8.37;7.57;;;25.80;66.30;;;;;;5000464;28;20510;-84
2021/06/28 08:31:33;;;;;;;6.33;5.93;;;25.80;66.90;;;;;;4983027;28;20965;-85
2021/06/28 08:33:59;;;;;;;8.80;8.00;;;25.80;65.90;;;;;;4984614;28;20425;-84
2021/06/28 08:36:25;;;;;;;7.27;6.67;;;25.80;65.50;;;;;;5000875;28;20462;-84
2021/06/28 08:38:50;;;;;;;10.90;9.80;;;25.80;65.70;;;;;;4984375;28;20425;-84
2021/06/28 08:41:18;;;;;;;9.20;8.20;;;25.90;66.20;;;;;;5000356;28;20199;-84
2021/06/28 08:43:45;;;;;;;8.87;7.80;;;25.90;67.20;;;;;;4984211;28;20179;-85
2021/06/28 08:46:13;;;;;;;11.83;8.97;;;26.00;66.40;;;;;;4983636;28;20878;-84
2021/06/28 08:48:41;;;;;;;10.60;8.53;;;25.90;66.00;;;;;;4982793;28;20419;-84
2021/06/28 08:51:08;;;;;;;9.03;8.23;;;26.00;67.20;;;;;;4983416;28;20449;-84
2021/06/28 08:53:34;;;;;;;12.00;9.60;;;26.00;67.40;;;;;;5002190;28;20415;-84
2021/06/28 08:56:06;;;;;;;9.80;8.17;;;26.10;67.70;;;;;;4983176;28;21040;-84
2021/06/28 08:58:35;;;;;;;11.67;7.90;;;26.10;67.50;;;;;;4984520;28;20535;-84
2021/06/28 09:01:01;;;;;;;8.30;7.50;;;26.10;67.50;;;;;;4982903;28;20451;-85
2021/06/28 09:03:27;;;;;;;9.73;8.73;;;26.00;66.00;;;;;;4985357;28;20440;-85
2021/06/28 09:06:37;;;;;;;10.63;8.93;;;25.90;65.00;;;;;;4982631;28;20183;-85
2021/06/28 09:09:14;;;;;;;11.87;8.57;;;25.80;66.40;;;;;;4991479;28;20194;-85
2021/06/28 09:11:46;;;;;;;16.60;7.60;;;25.80;68.00;;;;;;4975594;28;20521;-84
2021/06/28 09:14:13;;;;;;;11.23;7.77;;;25.70;68.50;;;;;;4983795;28;20422;-84
2021/06/28 09:16:40;;;;;;;10.70;7.63;;;25.60;69.00;;;;;;4982822;28;20882;-85
2021/06/28 09:19:21;;;;;;;8.03;7.23;;;25.50;68.70;;;;;;4983378;28;20496;-84
2021/06/28 09:21:53;;;;;;;9.13;6.93;;;25.40;69.20;;;;;;4982491;28;20434;-83
2021/06/28 09:24:35;;;;;;;10.00;8.10;;;25.50;70.20;;;;;;4983272;28;20423;-84
2021/06/28 09:27:10;;;;;;;9.00;7.50;;;25.40;70.60;;;;;;5000476;28;20429;-84
2021/06/28 09:29:38;;;;;;;8.80;7.90;;;25.40;69.60;;;;;;4983687;28;20425;-84
2021/06/28 09:32:11;;;;;;;9.80;8.10;;;25.30;68.90;;;;;;5000214;28;20443;-84
2021/06/28 09:34:38;;;;;;;8.70;7.20;;;25.30;68.20;;;;;;4982256;28;20430;-84
2021/06/28 09:37:04;;;;;;;9.33;8.07;;;25.20;67.40;;;;;;4981570;28;20592;-84
2021/06/28 09:39:38;;;;;;;9.90;7.10;;;25.10;68.10;;;;;;4999594;28;20482;-84
2021/06/28 09:42:07;;;;;;;9.07;7.17;;;25.20;65.50;;;;;;4998980;28;20524;-84
2021/06/28 09:44:39;;;;;;;7.63;7.00;;;25.40;65.20;;;;;;5000158;28;20933;-83
2021/06/28 09:47:08;;;;;;;9.70;8.07;;;25.40;66.90;;;;;;5000043;28;20416;-84
2021/06/28 09:49:34;;;;;;;8.03;7.03;;;25.40;66.10;;;;;;4980443;28;20438;-85
2021/06/28 09:52:00;;;;;;;12.77;7.10;;;25.30;67.50;;;;;;4997735;28;20438;-84
2021/06/28 09:54:25;;;;;;;10.73;7.53;;;25.30;68.20;;;;;;4982668;28;20430;-84
2021/06/28 09:56:53;;;;;;;10.80;9.67;;;25.30;67.20;;;;;;5009407;28;20210;-83
2021/06/28 09:59:30;;;;;;;18.73;9.13;;;25.30;66.90;;;;;;5000946;28;20176;-84
2021/06/28 10:02:27;;;;;;;10.83;9.60;;;25.20;68.60;;;;;;4995058;28;20476;-84
2021/06/28 10:04:59;;;;;;;9.87;8.87;;;25.20;70.40;;;;;;4963767;28;20446;-83
2021/06/28 10:07:25;;;;;;;9.33;7.30;;;25.20;71.30;;;;;;4979993;28;20493;-84
2021/06/28 10:10:11;;;;;;;7.80;6.87;;;25.30;71.10;;;;;;5004549;28;20500;-84
2021/06/28 10:12:38;;;;;;;10.77;9.50;;;25.40;70.80;;;;;;4985132;28;20271;-84
2021/06/28 10:15:06;;;;;;;9.83;8.83;;;25.60;69.60;;;;;;4982498;28;20482;-84
2021/06/28 10:17:33;;;;;;;10.53;7.10;;;25.60;67.50;;;;;;4981453;28;20427;-84
2021/06/28 10:19:59;;;;;;;9.37;8.47;;;25.60;66.60;;;;;;4980929;28;20430;-84
2021/06/28 10:22:25;;;;;;;8.80;7.70;;;25.60;66.00;;;;;;4984812;28;20474;-84
2021/06/28 10:24:51;;;;;;;10.40;7.53;;;25.60;66.70;;;;;;4986098;28;20430;-83
2021/06/28 10:27:19;;;;;;;11.10;8.47;;;25.60;66.00;;;;;;4985950;28;20179;-84
2021/06/28 10:29:45;;;;;;;16.20;8.63;;;25.40;66.20;;;;;;4984888;28;20499;-84
2021/06/28 10:32:12;;;;;;;8.60;7.67;;;25.40;66.10;;;;;;5002417;28;20434;-84
2021/06/28 10:34:48;;;;;;;11.60;8.50;;;25.20;67.80;;;;;;4984356;28;20540;-84
2021/06/28 10:37:35;;;;;;;8.90;8.00;;;25.20;68.10;;;;;;4985599;28;20471;-83
2021/06/28 10:40:21;;;;;;;8.77;7.93;;;25.20;68.50;;;;;;4985132;28;20416;-84
2021/06/28 10:42:57;;;;;;;9.90;7.87;;;25.20;67.80;;;;;;5002233;28;20468;-84
2021/06/28 10:45:44;;;;;;;14.17;8.53;;;25.30;66.90;;;;;;4985468;28;20406;-84
2021/06/28 10:48:15;;;;;;;7.27;6.57;;;25.50;65.40;;;;;;4984476;28;20422;-83
2021/06/28 10:51:00;;;;;;;8.10;6.60;;;25.50;66.20;;;;;;4985693;28;20418;-84
2021/06/28 10:53:32;;;;;;;9.70;8.80;;;25.70;67.20;;;;;;4986213;28;20925;-84
2021/06/28 10:55:59;;;;;;;8.80;7.53;;;26.00;68.10;;;;;;5002949;28;20463;-84
2021/06/28 10:58:31;;;;;;;18.80;8.93;;;26.30;68.00;;;;;;5003513;28;20458;-84
2021/06/28 11:00:59;;;;;;;16.40;8.43;;;26.50;65.70;;;;;;4988587;28;20445;-85
2021/06/28 11:03:26;;;;;;;11.40;9.70;;;26.80;63.70;;;;;;4993204;28;20512;-84
2021/06/28 11:06:14;;;;;;;11.20;8.77;;;26.90;64.70;;;;;;4987759;28;20501;-84
2021/06/28 11:09:08;;;;;;;14.43;9.30;;;27.00;63.30;;;;;;4968054;28;20442;-84
2021/06/28 11:11:46;;;;;;;7.60;6.80;;;27.10;63.20;;;;;;4980744;28;20452;-84
2021/06/28 11:14:21;;;;;;;7.47;6.73;;;27.20;64.10;;;;;;4985227;28;20428;-84
2021/06/28 11:16:57;;;;;;;11.83;9.10;;;27.30;63.60;;;;;;4985458;28;20964;-84
2021/06/28 11:20:05;;;;;;;10.50;9.20;;;27.20;62.00;;;;;;4984720;28;20433;-84
2021/06/28 11:22:31;;;;;;;8.17;7.37;;;27.30;60.80;;;;;;5003211;28;20444;-84
2021/06/28 11:25:07;;;;;;;13.73;10.50;;;27.30;62.80;;;;;;4985098;28;20410;-84
2021/06/28 11:28:03;;;;;;;14.93;10.43;;;27.00;63.90;;;;;;4985284;28;20443;-84
2021/06/28 11:30:37;;;;;;;11.00;9.10;;;26.60;64.20;;;;;;4916240;28;21047;-83
2021/06/28 11:33:05;;;;;;;9.40;8.10;;;26.60;65.70;;;;;;4984802;28;20903;-83
2021/06/28 11:35:39;;;;;;;12.47;8.67;;;26.40;65.00;;;;;;4985573;28;20468;-84
2021/06/28 11:38:33;;;;;;;10.00;8.30;;;26.30;66.00;;;;;;5002254;28;20406;-84
2021/06/28 11:41:09;;;;;;;9.97;8.37;;;26.30;65.90;;;;;;5000580;28;21000;-84
2021/06/28 11:43:47;;;;;;;8.97;7.97;;;26.20;66.90;;;;;;5001929;28;20410;-84
2021/06/28 11:46:24;;;;;;;14.30;9.17;;;26.00;67.20;;;;;;4984525;28;20429;-84
2021/06/28 11:48:57;;;;;;;10.30;9.23;;;25.80;68.60;;;;;;5003018;28;20421;-84
2021/06/28 11:51:29;;;;;;;11.97;9.27;;;25.70;69.50;;;;;;4982230;28;20447;-85
2021/06/28 11:53:57;;;;;;;13.63;9.80;;;25.50;70.40;;;;;;4983381;28;20418;-84
2021/06/28 11:56:44;;;;;;;12.63;9.60;;;25.40;71.70;;;;;;5002177;28;20454;-84
2021/06/28 11:59:15;;;;;;;16.03;10.20;;;25.30;71.80;;;;;;4983842;28;20474;-84
2021/06/28 12:01:46;;;;;;;14.00;12.40;;;25.30;72.50;;;;;;4982793;28;20454;-84
2021/06/28 12:04:17;;;;;;;17.60;12.30;;;25.20;72.60;;;;;;4983505;28;20788;-85
2021/06/28 12:06:44;;;;;;;17.70;12.10;;;25.20;73.00;;;;;;4984464;28;20438;-85
2021/06/28 12:09:14;;;;;;;10.60;9.60;;;25.30;73.40;;;;;;4990263;28;20422;-84
2021/06/28 12:11:54;;;;;;;13.63;9.60;;;25.30;72.10;;;;;;4983554;28;20442;-84
2021/06/28 12:14:38;;;;;;;15.20;9.80;;;25.20;71.00;;;;;;4985216;28;20473;-84
2021/06/28 12:17:14;;;;;;;13.60;9.40;;;25.20;70.50;;;;;;4981331;28;20454;-85
2021/06/28 12:19:42;;;;;;;13.67;10.70;;;25.40;71.00;;;;;;4982519;28;20418;-85
2021/06/28 12:22:17;;;;;;;12.23;11.03;;;25.40;70.90;;;;;;4997946;28;20426;-84
2021/06/28 12:24:44;;;;;;;10.90;9.80;;;25.50;70.20;;;;;;4995928;28;20410;-84
2021/06/28 12:27:17;;;;;;;11.17;9.33;;;25.60;69.70;;;;;;4998276;28;20429;-84
2021/06/28 12:29:45;;;;;;;11.50;10.03;;;25.60;70.00;;;;;;4979537;28;20577;-84
2021/06/28 12:32:23;;;;;;;10.80;7.50;;;25.80;70.60;;;;;;4996862;28;20434;-85
2021/06/28 12:34:57;;;;;;;7.93;7.23;;;25.80;68.70;;;;;;4996799;28;20501;-85
2021/06/28 12:37:31;;;;;;;7.90;7.10;;;25.80;68.70;;;;;;4979786;28;20948;-85
2021/06/28 12:40:18;;;;;;;8.37;7.50;;;25.90;68.90;;;;;;4980714;28;20418;-85